Time;durP1;ratioP1;P1;durP2;ratioP2;P2;SDS_P1;SDS_P2;PMS_P1;PMS_P2;Temp;Humidity;BMP_temperature;BMP_pressure;BME280_temperature;BME280_humidity;BME280_pressure;Samples;Min_cycle;Max_cycle;Signal;HPM_P1;HPM_P2
2022/04/27 00:01:27;;;;;;;;;;;;;;;;;;5096682;28;19912;-43
2022/04/27 00:03:52;;;;;;;;;;;;;;;;;;5096794;28;19953;-41
2022/04/27 00:06:17;;;;;;;;;;;;;;;;;;5097027;28;19912;-42
2022/04/27 00:08:42;;;;;;;;;;;;;;;;;;5096526;28;19907;-41
2022/04/27 00:11:07;;;;;;;;;;;;;;;;;;5096515;28;19919;-41
2022/04/27 00:13:32;;;;;;;;;;;;;;;;;;5096651;28;19915;-42
2022/04/27 00:15:57;;;;;;;;;;;;;;;;;;5096406;28;19908;-42
2022/04/27 00:18:22;;;;;;;;;;;;;;;;;;5096424;28;20366;-42
2022/04/27 00:20:47;;;;;;;;;;;;;;;;;;5096624;28;19908;-42
2022/04/27 00:23:13;;;;;;;;;;;;;;;;;;5096553;28;20285;-42
2022/04/27 00:25:38;;;;;;;;;;;;;;;;;;5095665;28;19912;-42
2022/04/27 00:28:03;;;;;;;;;;;;;;;;;;5096559;28;19916;-42
2022/04/27 00:30:28;;;;;;;;;;;;;;;;;;5096320;28;19916;-42
2022/04/27 00:32:53;;;;;;;;;;;;;;;;;;5096276;28;20392;-44
2022/04/27 00:35:18;;;;;;;;;;;;;;;;;;5096524;28;19951;-42
2022/04/27 00:37:43;;;;;;;;;;;;;;;;;;5096119;28;19912;-43
2022/04/27 00:40:08;;;;;;;;;;;;;;;;;;5096039;28;19912;-43
2022/04/27 00:42:33;;;;;;;;;;;;;;;;;;5095986;28;19908;-43
2022/04/27 00:44:58;;;;;;;;;;;;;;;;;;5095932;28;19908;-43
2022/04/27 00:47:24;;;;;;;;;;;;;;;;;;5096173;28;19912;-42
2022/04/27 00:49:49;;;;;;;;;;;;;;;;;;5095973;28;19908;-43
2022/04/27 00:52:14;;;;;;;;;;;;;;;;;;5096210;28;19908;-43
2022/04/27 00:54:39;;;;;;;;;;;;;;;;;;5095416;28;19909;-42
2022/04/27 00:57:04;;;;;;;;;;;;;;;;;;5095753;28;19916;-43
2022/04/27 00:59:29;;;;;;;;;;;;;;;;;;5095937;28;19915;-43
2022/04/27 01:01:54;;;;;;;;;;;;;;;;;;5095965;28;19908;-43
2022/04/27 01:04:19;;;;;;;;;;;;;;;;;;5095610;28;19912;-43
2022/04/27 01:06:44;;;;;;;;;;;;;;;;;;5095642;28;19959;-43
2022/04/27 01:09:10;;;;;;;;;;;;;;;;;;5095538;28;20311;-43
2022/04/27 01:11:35;;;;;;;;;;;;;;;;;;5096078;28;19978;-43
2022/04/27 01:14:00;;;;;;;;;;;;;;;;;;5094834;28;19908;-43
2022/04/27 01:16:25;;;;;;;;;;;;;;;;;;5095388;28;20302;-43
2022/04/27 01:18:50;;;;;;;;;;;;;;;;;;5077308;28;19908;-43
2022/04/27 01:21:15;;;;;;;;;;;;;;;;;;5095300;28;20348;-43
2022/04/27 01:23:41;;;;;;;;;;;;;;;;;;5095097;28;20263;-43
2022/04/27 01:26:07;;;;;;;;;;;;;;;;;;5088818;22;19925;-43
2022/04/27 01:28:32;;;;;;;;;;;;;;;;;;5055040;28;19913;-42
2022/04/27 01:30:57;;;;;;;;;;;;;;;;;;5054994;28;19915;-42
2022/04/27 01:33:22;;;;;;;;;;;;;;;;;;5055030;28;19909;-42
2022/04/27 01:35:47;;;;;;;;;;;;;;;;;;5055250;28;19936;-43
2022/04/27 01:38:15;;;;;;;;;;;;;;;;;;5054995;28;19909;-43
2022/04/27 01:40:40;;;;;;;;;;;;;;;;;;5055081;28;19959;-43
2022/04/27 01:43:05;;;;;;;;;;;;;;;;;;5054996;28;19912;-43
2022/04/27 01:45:30;;;;;;;;;;;;;;;;;;5055040;28;19917;-43
2022/04/27 01:47:57;;;;;;;;;;;;;;;;;;5055026;28;19913;-42
2022/04/27 01:50:22;;;;;;;;;;;;;;;;;;5054750;28;19917;-43
2022/04/27 01:55:31;;;;;;;;;;;;;;;;;;5055115;28;19916;-44
2022/04/27 01:57:56;;;;;;;;;;;;;;;;;;5054947;28;19909;-43
2022/04/27 02:00:21;;;;;;;;;;;;;;;;;;5054898;28;19915;-43
2022/04/27 02:02:46;;;;;;;;;;;;;;;;;;5055152;28;19916;-43
2022/04/27 02:05:11;;;;;;;;;;;;;;;;;;5054675;28;19916;-43
2022/04/27 02:07:36;;;;;;;;;;;;;;;;;;5054558;28;20379;-43
2022/04/27 02:10:02;;;;;;;;;;;;;;;;;;5054725;28;19912;-43
2022/04/27 02:12:27;;;;;;;;;;;;;;;;;;5054571;28;19909;-43
2022/04/27 02:14:52;;;;;;;;;;;;;;;;;;5054327;28;19952;-43
2022/04/27 02:17:17;;;;;;;;;;;;;;;;;;5054564;28;20016;-43
2022/04/27 02:19:42;;;;;;;;;;;;;;;;;;5054968;28;19913;-42
2022/04/27 02:22:07;;;;;;;;;;;;;;;;;;5054887;28;19909;-43
2022/04/27 02:24:32;;;;;;;;;;;;;;;;;;5059514;28;20319;-43
2022/04/27 02:26:57;;;;;;;;;;;;;;;;;;5077536;28;19946;-43
2022/04/27 02:29:23;;;;;;;;;;;;;;;;;;5078468;28;19927;-42
2022/04/27 02:31:48;;;;;;;;;;;;;;;;;;5078391;28;19908;-42
2022/04/27 02:34:13;;;;;;;;;;;;;;;;;;5078101;28;19915;-42
2022/04/27 02:36:38;;;;;;;;;;;;;;;;;;5078451;28;19908;-43
2022/04/27 02:39:03;;;;;;;;;;;;;;;;;;5076836;28;20001;-43
2022/04/27 02:41:28;;;;;;;;;;;;;;;;;;5077946;28;20046;-42
2022/04/27 02:43:55;;;;;;;;;;;;;;;;;;5077874;28;20351;-43
2022/04/27 02:46:20;;;;;;;;;;;;;;;;;;5078129;28;20295;-42
2022/04/27 02:54:12;;;;;;;;;;;;;;;;;;5057994;28;19916;-42
2022/04/27 02:56:40;;;;;;;;;;;;;;;;;;5075531;28;19912;-42
2022/04/27 02:59:05;;;;;;;;;;;;;;;;;;5077862;28;19909;-42
2022/04/27 03:01:30;;;;;;;;;;;;;;;;;;5077426;28;19934;-42
2022/04/27 03:03:55;;;;;;;;;;;;;;;;;;5077913;28;20378;-42
2022/04/27 03:06:20;;;;;;;;;;;;;;;;;;5077642;28;19908;-42
2022/04/27 03:08:45;;;;;;;;;;;;;;;;;;5077674;28;20245;-42
2022/04/27 03:11:10;;;;;;;;;;;;;;;;;;5077843;28;19909;-42
2022/04/27 03:13:35;;;;;;;;;;;;;;;;;;5077743;28;19968;-42
2022/04/27 03:16:01;;;;;;;;;;;;;;;;;;5077563;28;19912;-42
2022/04/27 03:18:26;;;;;;;;;;;;;;;;;;5077623;28;19979;-42
2022/04/27 03:20:51;;;;;;;;;;;;;;;;;;5077575;28;19909;-42
2022/04/27 03:23:16;;;;;;;;;;;;;;;;;;5077508;28;19916;-42
2022/04/27 03:25:41;;;;;;;;;;;;;;;;;;5076511;28;19921;-42
2022/04/27 03:28:07;;;;;;;;;;;;;;;;;;5077066;28;19973;-42
2022/04/27 03:30:32;;;;;;;;;;;;;;;;;;5077095;28;19962;-42
2022/04/27 03:32:59;;;;;;;;;;;;;;;;;;5077284;28;19935;-42
2022/04/27 03:35:25;;;;;;;;;;;;;;;;;;5076923;28;19943;-42
2022/04/27 03:37:50;;;;;;;;;;;;;;;;;;5076591;28;20343;-42
2022/04/27 03:40:15;;;;;;;;;;;;;;;;;;5076958;28;19904;-43
2022/04/27 03:42:40;;;;;;;;;;;;;;;;;;5076985;28;20023;-42
2022/04/27 03:45:05;;;;;;;;;;;;;;;;;;5077008;28;19915;-42
2022/04/27 03:47:30;;;;;;;;;;;;;;;;;;5076954;28;20252;-42
2022/04/27 03:49:59;;;;;;;;;;;;;;;;;;5076718;28;19909;-42
2022/04/27 03:52:24;;;;;;;;;;;;;;;;;;5077016;28;19908;-42
2022/04/27 03:54:49;;;;;;;;;;;;;;;;;;5076404;28;20288;-42
2022/04/27 03:57:15;;;;;;;;;;;;;;;;;;5077290;28;19915;-42
2022/04/27 03:59:40;;;;;;;;;;;;;;;;;;5076819;28;19909;-43
2022/04/27 04:02:06;;;;;;;;;;;;;;;;;;5076809;28;19909;-42
2022/04/27 04:04:31;;;;;;;;;;;;;;;;;;5075835;28;20328;-42
2022/04/27 04:06:57;;;;;;;;;;;;;;;;;;5076492;28;19962;-43
2022/04/27 04:09:22;;;;;;;;;;;;;;;;;;5076445;28;20378;-43
2022/04/27 04:11:47;;;;;;;;;;;;;;;;;;5076298;28;19916;-42
2022/04/27 04:14:12;;;;;;;;;;;;;;;;;;5076054;28;19912;-43
2022/04/27 04:16:37;;;;;;;;;;;;;;;;;;5076559;28;19931;-42
2022/04/27 04:19:02;;;;;;;;;;;;;;;;;;5076214;28;19919;-43
2022/04/27 04:21:27;;;;;;;;;;;;;;;;;;5076459;28;19909;-42
2022/04/27 04:23:52;;;;;;;;;;;;;;;;;;5076252;28;19962;-42
2022/04/27 04:29:01;;;;;;;;;;;;;;;;;;5076015;28;19958;-42
2022/04/27 04:31:26;;;;;;;;;;;;;;;;;;5075839;28;19912;-42
2022/04/27 04:33:51;;;;;;;;;;;;;;;;;;5074399;28;19908;-42
2022/04/27 04:36:17;;;;;;;;;;;;;;;;;;5075769;28;20004;-42
2022/04/27 04:38:42;;;;;;;;;;;;;;;;;;5075582;28;19919;-43
2022/04/27 04:41:07;;;;;;;;;;;;;;;;;;5075529;28;20275;-42
2022/04/27 04:43:32;;;;;;;;;;;;;;;;;;5075680;28;19916;-42
2022/04/27 04:45:57;;;;;;;;;;;;;;;;;;5075704;28;20378;-43
2022/04/27 04:48:22;;;;;;;;;;;;;;;;;;5074966;28;19912;-42
2022/04/27 04:50:48;;;;;;;;;;;;;;;;;;5075702;28;19909;-46
2022/04/27 04:53:13;;;;;;;;;;;;;;;;;;5075584;28;20279;-42
2022/04/27 04:55:38;;;;;;;;;;;;;;;;;;5075355;28;20382;-42
2022/04/27 04:58:03;;;;;;;;;;;;;;;;;;5075281;28;20387;-43
2022/04/27 05:00:28;;;;;;;;;;;;;;;;;;5075456;28;19915;-43
2022/04/27 05:02:54;;;;;;;;;;;;;;;;;;5075165;28;20271;-42
2022/04/27 05:05:19;;;;;;;;;;;;;;;;;;5075829;28;20386;-43
2022/04/27 05:07:44;;;;;;;;;;;;;;;;;;5075498;28;20015;-42
2022/04/27 05:10:10;;;;;;;;;;;;;;;;;;5075780;28;20310;-42
2022/04/27 05:12:35;;;;;;;;;;;;;;;;;;5075655;28;19912;-42
2022/04/27 05:15:00;;;;;;;;;;;;;;;;;;5075637;28;19955;-42
2022/04/27 05:17:25;;;;;;;;;;;;;;;;;;5075578;28;19915;-42
2022/04/27 05:19:52;;;;;;;;;;;;;;;;;;5075583;28;19909;-41
2022/04/27 05:22:17;;;;;;;;;;;;;;;;;;5075252;28;19908;-43
2022/04/27 05:24:42;;;;;;;;;;;;;;;;;;5074750;28;19923;-41
2022/04/27 05:27:07;;;;;;;;;;;;;;;;;;5074889;28;20279;-43
2022/04/27 05:32:16;;;;;;;;;;;;;;;;;;5075469;28;20402;-44
2022/04/27 05:34:41;;;;;;;;;;;;;;;;;;5075278;28;19912;-42
2022/04/27 05:37:06;;;;;;;;;;;;;;;;;;5075353;28;19908;-42
2022/04/27 05:39:31;;;;;;;;;;;;;;;;;;5074963;28;19994;-42
2022/04/27 05:41:56;;;;;;;;;;;;;;;;;;5075150;28;20363;-42
2022/04/27 05:44:22;;;;;;;;;;;;;;;;;;5074698;28;19944;-42
2022/04/27 05:46:47;;;;;;;;;;;;;;;;;;5075029;28;20283;-42
2022/04/27 05:49:12;;;;;;;;;;;;;;;;;;5074992;28;19916;-43
2022/04/27 05:51:37;;;;;;;;;;;;;;;;;;5075164;28;20362;-42
2022/04/27 05:54:02;;;;;;;;;;;;;;;;;;5074745;28;20006;-42
2022/04/27 05:56:27;;;;;;;;;;;;;;;;;;5075110;28;19908;-42
2022/04/27 05:58:53;;;;;;;;;;;;;;;;;;5075035;28;19915;-43
2022/04/27 06:01:18;;;;;;;;;;;;;;;;;;5078875;28;19908;-43
2022/04/27 06:03:44;;;;;;;;;;;;;;;;;;5078656;28;19908;-41
2022/04/27 06:06:09;;;;;;;;;;;;;;;;;;5078683;28;19913;-41
2022/04/27 06:08:34;;;;;;;;;;;;;;;;;;5078516;28;20314;-42
2022/04/27 06:10:59;;;;;;;;;;;;;;;;;;5078492;28;19913;-42
2022/04/27 06:13:27;;;;;;;;;;;;;;;;;;5078590;28;19908;-43
2022/04/27 06:15:52;;;;;;;;;;;;;;;;;;5078352;28;20363;-42
2022/04/27 06:18:17;;;;;;;;;;;;;;;;;;5078322;28;19909;-44
2022/04/27 06:20:42;;;;;;;;;;;;;;;;;;5078157;28;19908;-43
2022/04/27 06:23:07;;;;;;;;;;;;;;;;;;5078459;28;19913;-42
2022/04/27 06:25:34;;;;;;;;;;;;;;;;;;5077438;28;20015;-43
2022/04/27 06:27:59;;;;;;;;;;;;;;;;;;5078352;28;20287;-43
2022/04/27 06:30:25;;;;;;;;;;;;;;;;;;5077947;28;19991;-42
2022/04/27 06:32:50;;;;;;;;;;;;;;;;;;5078233;28;19912;-43
2022/04/27 06:35:15;;;;;;;;;;;;;;;;;;5078332;28;20276;-42
2022/04/27 06:37:40;;;;;;;;;;;;;;;;;;5078202;28;20007;-42
2022/04/27 06:40:05;;;;;;;;;;;;;;;;;;5078144;28;19999;-43
2022/04/27 06:42:30;;;;;;;;;;;;;;;;;;5078470;28;20015;-43
2022/04/27 06:44:55;;;;;;;;;;;;;;;;;;5077884;28;19909;-43
2022/04/27 06:47:20;;;;;;;;;;;;;;;;;;5076479;28;19969;-43
2022/04/27 06:49:46;;;;;;;;;;;;;;;;;;5074845;28;19913;-44
2022/04/27 06:52:11;;;;;;;;;;;;;;;;;;5077794;28;19956;-43
2022/04/27 06:54:36;;;;;;;;;;;;;;;;;;5077310;28;19962;-43
2022/04/27 06:57:01;;;;;;;;;;;;;;;;;;5077659;28;19913;-43
2022/04/27 06:59:26;;;;;;;;;;;;;;;;;;5077549;28;19912;-43
2022/04/27 07:01:51;;;;;;;;;;;;;;;;;;5077661;28;20357;-43
2022/04/27 07:04:17;;;;;;;;;;;;;;;;;;5077625;28;19998;-43
2022/04/27 07:06:42;;;;;;;;;;;;;;;;;;5077450;28;19962;-44
2022/04/27 07:09:13;;;;;;;;;;;;;;;;;;5077414;28;19948;-44
2022/04/27 07:11:40;;;;;;;;;;;;;;;;;;5076717;28;19962;-44
2022/04/27 07:14:05;;;;;;;;;;;;;;;;;;5076598;28;19915;-44
2022/04/27 07:16:30;;;;;;;;;;;;;;;;;;5077614;28;19912;-44
2022/04/27 07:18:55;;;;;;;;;;;;;;;;;;5077228;28;19909;-44
2022/04/27 07:21:20;;;;;;;;;;;;;;;;;;5077106;28;19916;-43
2022/04/27 07:23:46;;;;;;;;;;;;;;;;;;5076764;28;19928;-44
2022/04/27 07:26:11;;;;;;;;;;;;;;;;;;5076790;28;20367;-45
2022/04/27 07:28:37;;;;;;;;;;;;;;;;;;5077073;28;19920;-44
2022/04/27 07:31:02;;;;;;;;;;;;;;;;;;5077097;28;19909;-44
2022/04/27 07:33:27;;;;;;;;;;;;;;;;;;5076932;28;19912;-44
2022/04/27 07:35:52;;;;;;;;;;;;;;;;;;5076799;28;19909;-44
2022/04/27 07:38:17;;;;;;;;;;;;;;;;;;5076772;28;19912;-43
2022/04/27 07:40:42;;;;;;;;;;;;;;;;;;5076749;28;19908;-44
2022/04/27 07:43:07;;;;;;;;;;;;;;;;;;5076735;28;20348;-44
2022/04/27 07:45:32;;;;;;;;;;;;;;;;;;5074772;28;19912;-44
2022/04/27 07:47:58;;;;;;;;;;;;;;;;;;5082023;28;19913;-43
2022/04/27 07:50:23;;;;;;;;;;;;;;;;;;5077948;28;20244;-43
2022/04/27 07:52:48;;;;;;;;;;;;;;;;;;5076388;28;19979;-44
2022/04/27 07:55:13;;;;;;;;;;;;;;;;;;5075483;28;19973;-44
2022/04/27 07:57:38;;;;;;;;;;;;;;;;;;5076704;28;19915;-44
2022/04/27 08:00:03;;;;;;;;;;;;;;;;;;5076358;28;19913;-43
2022/04/27 08:02:28;;;;;;;;;;;;;;;;;;5076339;28;20351;-43
2022/04/27 08:04:53;;;;;;;;;;;;;;;;;;5076151;28;20382;-43
2022/04/27 08:07:19;;;;;;;;;;;;;;;;;;5071769;28;19917;-44
2022/04/27 08:09:44;;;;;;;;;;;;;;;;;;5076308;28;19915;-44
2022/04/27 08:12:09;;;;;;;;;;;;;;;;;;5076055;28;19915;-44
2022/04/27 08:14:35;;;;;;;;;;;;;;;;;;5076175;28;19908;-44
2022/04/27 08:17:01;;;;;;;;;;;;;;;;;;5073178;28;19931;-44
2022/04/27 08:19:27;;;;;;;;;;;;;;;;;;5072939;28;19912;-44
2022/04/27 08:21:52;;;;;;;;;;;;;;;;;;5071081;28;19927;-44
2022/04/27 08:24:19;;;;;;;;;;;;;;;;;;5073179;28;19912;-44
2022/04/27 08:26:44;;;;;;;;;;;;;;;;;;5074790;28;19927;-44
2022/04/27 08:29:09;;;;;;;;;;;;;;;;;;5075161;28;19912;-44
2022/04/27 08:31:34;;;;;;;;;;;;;;;;;;5074256;28;19962;-44
2022/04/27 08:33:59;;;;;;;;;;;;;;;;;;5074531;28;19962;-44
2022/04/27 08:36:24;;;;;;;;;;;;;;;;;;5074929;28;19916;-44
2022/04/27 08:38:51;;;;;;;;;;;;;;;;;;5074938;28;19912;-43
2022/04/27 08:41:16;;;;;;;;;;;;;;;;;;5075670;28;19908;-44
2022/04/27 08:43:41;;;;;;;;;;;;;;;;;;5075633;28;19967;-45
2022/04/27 08:46:06;;;;;;;;;;;;;;;;;;5075566;28;19912;-43
2022/04/27 08:48:31;;;;;;;;;;;;;;;;;;5075358;28;19912;-44
2022/04/27 08:50:59;;;;;;;;;;;;;;;;;;5075293;28;19947;-43
2022/04/27 08:53:24;;;;;;;;;;;;;;;;;;5075348;28;19908;-44
2022/04/27 08:55:52;;;;;;;;;;;;;;;;;;5074680;28;20283;-43
2022/04/27 08:58:17;;;;;;;;;;;;;;;;;;5075164;28;19935;-43
2022/04/27 09:00:42;;;;;;;;;;;;;;;;;;5075060;28;20390;-43
2022/04/27 09:03:07;;;;;;;;;;;;;;;;;;5075195;28;19909;-43
2022/04/27 09:05:32;;;;;;;;;;;;;;;;;;5075213;28;19905;-43
2022/04/27 09:07:58;;;;;;;;;;;;;;;;;;5074875;28;20352;-45
2022/04/27 09:10:23;;;;;;;;;;;;;;;;;;5074878;28;19916;-43
2022/04/27 09:12:48;;;;;;;;;;;;;;;;;;5074872;28;19913;-44
2022/04/27 09:15:13;;;;;;;;;;;;;;;;;;5075034;28;19915;-43
2022/04/27 09:23:06;;;;;;;;;;;;;;;;;;5074810;28;19997;-45
2022/04/27 09:25:31;;;;;;;;;;;;;;;;;;5074447;28;19916;-44
2022/04/27 09:27:57;;;;;;;;;;;;;;;;;;5074706;28;19920;-44
2022/04/27 09:30:23;;;;;;;;;;;;;;;;;;5074799;28;19912;-43
2022/04/27 09:32:48;;;;;;;;;;;;;;;;;;5074747;28;19909;-44
2022/04/27 09:35:13;;;;;;;;;;;;;;;;;;5074201;28;19914;-44
2022/04/27 09:37:39;;;;;;;;;;;;;;;;;;5074720;28;19988;-44
2022/04/27 09:40:04;;;;;;;;;;;;;;;;;;5073637;28;19908;-44
2022/04/27 09:42:29;;;;;;;;;;;;;;;;;;5074817;28;20021;-43
2022/04/27 09:44:54;;;;;;;;;;;;;;;;;;5074659;28;20028;-45
2022/04/27 09:47:20;;;;;;;;;;;;;;;;;;5074715;28;19919;-44
2022/04/27 09:49:46;;;;;;;;;;;;;;;;;;5074685;28;19961;-44
2022/04/27 09:52:11;;;;;;;;;;;;;;;;;;5074688;28;19908;-42
2022/04/27 09:54:36;;;;;;;;;;;;;;;;;;5074573;28;19919;-42
2022/04/27 09:57:01;;;;;;;;;;;;;;;;;;5074336;28;19916;-43
2022/04/27 09:59:27;;;;;;;;;;;;;;;;;;5075297;28;20437;-45
2022/04/27 10:01:53;;;;;;;;;;;;;;;;;;5074652;28;19916;-44
2022/04/27 10:04:18;;;;;;;;;;;;;;;;;;5074380;28;19913;-43
2022/04/27 10:06:43;;;;;;;;;;;;;;;;;;5074157;28;19908;-43
2022/04/27 10:09:08;;;;;;;;;;;;;;;;;;5074462;28;20371;-44
2022/04/27 10:11:33;;;;;;;;;;;;;;;;;;5074336;28;20330;-44
2022/04/27 10:13:58;;;;;;;;;;;;;;;;;;5074211;28;20360;-43
2022/04/27 10:16:23;;;;;;;;;;;;;;;;;;5074539;28;19908;-43
2022/04/27 10:18:49;;;;;;;;;;;;;;;;;;5074575;28;20282;-44
2022/04/27 10:21:14;;;;;;;;;;;;;;;;;;5074550;28;19909;-44
2022/04/27 10:23:39;;;;;;;;;;;;;;;;;;5074617;28;19913;-44
2022/04/27 10:26:04;;;;;;;;;;;;;;;;;;5074111;28;19921;-43
2022/04/27 10:28:29;;;;;;;;;;;;;;;;;;5074079;28;20009;-43
2022/04/27 10:30:56;;;;;;;;;;;;;;;;;;5074312;28;19913;-43
2022/04/27 10:33:21;;;;;;;;;;;;;;;;;;5072950;28;20328;-43
2022/04/27 10:35:46;;;;;;;;;;;;;;;;;;5074305;28;19940;-43
2022/04/27 10:38:11;;;;;;;;;;;;;;;;;;5074429;28;19912;-43
2022/04/27 10:40:37;;;;;;;;;;;;;;;;;;5074342;28;20321;-44
2022/04/27 10:43:02;;;;;;;;;;;;;;;;;;5074218;28;20381;-45
2022/04/27 10:45:27;;;;;;;;;;;;;;;;;;5074288;28;19904;-43
2022/04/27 10:47:52;;;;;;;;;;;;;;;;;;5077220;28;20252;-44
2022/04/27 10:50:17;;;;;;;;;;;;;;;;;;5077721;28;19908;-43
2022/04/27 10:52:43;;;;;;;;;;;;;;;;;;5077688;28;19909;-44
2022/04/27 10:55:08;;;;;;;;;;;;;;;;;;5077572;28;20378;-45
2022/04/27 10:57:33;;;;;;;;;;;;;;;;;;5077640;28;19995;-44
2022/04/27 11:00:01;;;;;;;;;;;;;;;;;;5079484;28;19912;-43
2022/04/27 11:02:26;;;;;;;;;;;;;;;;;;5080711;28;19908;-43
2022/04/27 11:04:52;;;;;;;;;;;;;;;;;;5079474;28;19916;-44
2022/04/27 11:07:18;;;;;;;;;;;;;;;;;;5078019;28;19912;-44
2022/04/27 11:09:43;;;;;;;;;;;;;;;;;;5078537;28;19916;-43
2022/04/27 11:12:08;;;;;;;;;;;;;;;;;;5078359;28;19908;-43
2022/04/27 11:14:34;;;;;;;;;;;;;;;;;;5078150;28;19916;-44
2022/04/27 11:16:59;;;;;;;;;;;;;;;;;;5080024;28;19924;-43
2022/04/27 11:19:24;;;;;;;;;;;;;;;;;;5077368;28;19908;-42
2022/04/27 11:21:50;;;;;;;;;;;;;;;;;;5077313;28;20314;-45
2022/04/27 11:24:16;;;;;;;;;;;;;;;;;;5077057;28;19909;-43
2022/04/27 11:26:41;;;;;;;;;;;;;;;;;;5076949;28;20002;-43
2022/04/27 11:29:06;;;;;;;;;;;;;;;;;;5077127;28;19915;-42
2022/04/27 11:31:32;;;;;;;;;;;;;;;;;;5077094;28;20344;-43
2022/04/27 11:33:57;;;;;;;;;;;;;;;;;;5077425;28;19908;-43
2022/04/27 11:36:23;;;;;;;;;;;;;;;;;;5077178;28;19908;-45
2022/04/27 11:38:48;;;;;;;;;;;;;;;;;;5077115;28;19978;-43
2022/04/27 11:41:13;;;;;;;;;;;;;;;;;;5076572;28;19915;-42
2022/04/27 11:43:38;;;;;;;;;;;;;;;;;;5076725;28;19916;-42
2022/04/27 11:46:03;;;;;;;;;;;;;;;;;;5076538;28;19991;-43
2022/04/27 11:48:28;;;;;;;;;;;;;;;;;;5076389;28;19920;-43
2022/04/27 11:50:54;;;;;;;;;;;;;;;;;;5076472;28;19913;-44
2022/04/27 11:53:19;;;;;;;;;;;;;;;;;;5060678;28;19966;-44
2022/04/27 11:55:44;;;;;;;;;;;;;;;;;;5070119;28;20406;-42
2022/04/27 11:58:09;;;;;;;;;;;;;;;;;;5076227;28;19912;-44
2022/04/27 12:00:34;;;;;;;;;;;;;;;;;;5076433;28;19908;-44
2022/04/27 12:03:06;;;;;;;;;;;;;;;;;;5076548;28;19967;-44
2022/04/27 12:05:32;;;;;;;;;;;;;;;;;;5075131;28;19908;-44
2022/04/27 12:07:57;;;;;;;;;;;;;;;;;;5076391;28;20271;-43
2022/04/27 12:10:22;;;;;;;;;;;;;;;;;;5076419;28;19908;-44
2022/04/27 12:12:48;;;;;;;;;;;;;;;;;;5076296;28;19912;-43
2022/04/27 12:15:13;;;;;;;;;;;;;;;;;;5076242;28;20271;-43
2022/04/27 12:17:38;;;;;;;;;;;;;;;;;;5074882;28;20303;-43
2022/04/27 12:20:03;;;;;;;;;;;;;;;;;;5075959;28;19995;-42
2022/04/27 12:22:28;;;;;;;;;;;;;;;;;;5075908;28;19916;-43
2022/04/27 12:24:54;;;;;;;;;;;;;;;;;;5075322;28;19912;-44
2022/04/27 12:27:19;;;;;;;;;;;;;;;;;;5075922;28;19924;-44
2022/04/27 12:29:44;;;;;;;;;;;;;;;;;;5075838;28;19909;-43
2022/04/27 12:32:09;;;;;;;;;;;;;;;;;;5075643;28;19946;-44
2022/04/27 12:37:30;;;;;;;;;;;;;;;;;;5075604;28;20313;-43
2022/04/27 12:39:56;;;;;;;;;;;;;;;;;;5075354;28;19917;-44
2022/04/27 12:42:21;;;;;;;;;;;;;;;;;;5075458;28;19912;-44
2022/04/27 12:44:46;;;;;;;;;;;;;;;;;;5075533;28;20376;-43
2022/04/27 12:47:11;;;;;;;;;;;;;;;;;;5075261;28;20348;-44
2022/04/27 12:49:37;;;;;;;;;;;;;;;;;;5075318;28;20271;-44
2022/04/27 12:52:02;;;;;;;;;;;;;;;;;;5075240;28;19915;-44
2022/04/27 12:54:27;;;;;;;;;;;;;;;;;;5075029;28;19930;-44
2022/04/27 12:56:52;;;;;;;;;;;;;;;;;;5075113;28;19908;-43
2022/04/27 12:59:17;;;;;;;;;;;;;;;;;;5075251;28;19947;-44
2022/04/27 13:01:42;;;;;;;;;;;;;;;;;;5075166;28;19908;-44
2022/04/27 13:04:07;;;;;;;;;;;;;;;;;;5075034;28;19915;-45
2022/04/27 13:06:32;;;;;;;;;;;;;;;;;;5075037;28;19936;-43
2022/04/27 13:11:55;;;;;;;;;;;;;;;;;;5074159;28;20374;-43
2022/04/27 13:11:55;;;;;;;;;;;;;;;;;;5074854;28;19908;-43
2022/04/27 13:14:20;;;;;;;;;;;;;;;;;;5074648;28;19949;-44
2022/04/27 13:16:45;;;;;;;;;;;;;;;;;;5074743;28;20273;-44
2022/04/27 13:19:10;;;;;;;;;;;;;;;;;;5074696;28;19912;-45
2022/04/27 13:21:35;;;;;;;;;;;;;;;;;;5075012;28;19936;-44
2022/04/27 13:24:00;;;;;;;;;;;;;;;;;;5074508;28;19916;-44
2022/04/27 13:26:26;;;;;;;;;;;;;;;;;;5074006;22;19929;-43
2022/04/27 13:28:51;;;;;;;;;;;;;;;;;;5054695;28;19913;-43
2022/04/27 13:31:18;;;;;;;;;;;;;;;;;;5042221;28;20491;-44
2022/04/27 13:33:43;;;;;;;;;;;;;;;;;;5054672;28;19916;-44
2022/04/27 13:36:08;;;;;;;;;;;;;;;;;;5054558;28;19913;-44
2022/04/27 13:38:33;;;;;;;;;;;;;;;;;;5054673;28;19909;-44
2022/04/27 13:40:59;;;;;;;;;;;;;;;;;;5054521;28;19909;-44
2022/04/27 13:43:25;;;;;;;;;;;;;;;;;;5054480;28;19909;-44
2022/04/27 13:45:50;;;;;;;;;;;;;;;;;;5054357;28;20262;-43
2022/04/27 13:48:15;;;;;;;;;;;;;;;;;;5054352;28;20269;-44
2022/04/27 13:50:40;;;;;;;;;;;;;;;;;;5054428;28;19912;-44
2022/04/27 13:53:05;;;;;;;;;;;;;;;;;;5054367;28;19912;-44
2022/04/27 13:55:32;;;;;;;;;;;;;;;;;;5054001;28;19923;-43
2022/04/27 13:57:57;;;;;;;;;;;;;;;;;;5054453;28;19912;-43
2022/04/27 14:00:22;;;;;;;;;;;;;;;;;;5054404;28;19923;-43
2022/04/27 14:02:47;;;;;;;;;;;;;;;;;;5054489;28;19908;-44
2022/04/27 14:05:12;;;;;;;;;;;;;;;;;;5054449;28;19905;-43
2022/04/27 14:07:37;;;;;;;;;;;;;;;;;;5054153;28;19912;-44
2022/04/27 14:10:02;;;;;;;;;;;;;;;;;;5054165;28;20272;-43
2022/04/27 14:15:11;;;;;;;;;;;;;;;;;;5054163;28;19947;-44
2022/04/27 14:20:20;;;;;;;;;;;;;;;;;;5055140;28;19919;-45
2022/04/27 14:22:45;;;;;;;;;;;;;;;;;;5057893;28;19912;-43
2022/04/27 14:25:11;;;;;;;;;;;;;;;;;;5057334;28;19966;-44
2022/04/27 14:27:36;;;;;;;;;;;;;;;;;;5057481;28;19998;-44
2022/04/27 14:30:01;;;;;;;;;;;;;;;;;;5057894;28;19912;-44
2022/04/27 14:32:26;;;;;;;;;;;;;;;;;;5057730;28;19917;-44
2022/04/27 14:34:51;;;;;;;;;;;;;;;;;;5057063;28;19964;-44
2022/04/27 14:37:16;;;;;;;;;;;;;;;;;;5057761;28;19931;-44
2022/04/27 14:39:41;;;;;;;;;;;;;;;;;;5057781;28;19908;-44
2022/04/27 14:42:07;;;;;;;;;;;;;;;;;;5057660;28;20412;-44
2022/04/27 14:44:32;;;;;;;;;;;;;;;;;;5057654;28;19911;-45
2022/04/27 14:46:57;;;;;;;;;;;;;;;;;;5057654;28;19909;-44
2022/04/27 14:49:22;;;;;;;;;;;;;;;;;;5055197;28;19919;-42
2022/04/27 14:51:47;;;;;;;;;;;;;;;;;;5072942;28;19909;-44
2022/04/27 14:54:12;;;;;;;;;;;;;;;;;;5057338;28;19905;-44
2022/04/27 14:56:37;;;;;;;;;;;;;;;;;;5057077;28;20264;-44
2022/04/27 14:59:03;;;;;;;;;;;;;;;;;;5057273;28;20354;-44
2022/04/27 15:01:28;;;;;;;;;;;;;;;;;;5057505;28;20309;-45
2022/04/27 15:03:53;;;;;;;;;;;;;;;;;;5057366;28;20280;-43
2022/04/27 15:06:19;;;;;;;;;;;;;;;;;;5057270;28;19912;-43
2022/04/27 15:08:44;;;;;;;;;;;;;;;;;;5057021;28;19917;-43
2022/04/27 15:11:09;;;;;;;;;;;;;;;;;;5056904;28;20265;-43
2022/04/27 15:13:34;;;;;;;;;;;;;;;;;;5056964;28;19908;-44
2022/04/27 15:15:59;;;;;;;;;;;;;;;;;;5056870;28;19916;-45
2022/04/27 15:18:25;;;;;;;;;;;;;;;;;;5056866;28;19909;-43
2022/04/27 15:23:33;;;;;;;;;;;;;;;;;;5056549;28;20271;-43
2022/04/27 15:25:59;;;;;;;;;;;;;;;;;;5056593;28;19917;-44
2022/04/27 15:28:24;;;;;;;;;;;;;;;;;;5056695;28;19920;-44
2022/04/27 15:30:49;;;;;;;;;;;;;;;;;;5056640;28;19990;-43
2022/04/27 15:33:14;;;;;;;;;;;;;;;;;;5056104;28;19928;-44
2022/04/27 15:35:39;;;;;;;;;;;;;;;;;;5056895;28;20371;-43
2022/04/27 15:38:06;;;;;;;;;;;;;;;;;;5056542;28;20311;-44
2022/04/27 15:40:31;;;;;;;;;;;;;;;;;;5056835;28;19909;-44
2022/04/27 15:42:56;;;;;;;;;;;;;;;;;;5056620;28;19916;-44
2022/04/27 15:45:21;;;;;;;;;;;;;;;;;;5056655;28;19913;-44
2022/04/27 15:47:47;;;;;;;;;;;;;;;;;;5056513;28;19916;-44
2022/04/27 15:50:12;;;;;;;;;;;;;;;;;;5056460;28;20314;-43
2022/04/27 15:52:37;;;;;;;;;;;;;;;;;;5056529;28;19912;-44
2022/04/27 15:55:02;;;;;;;;;;;;;;;;;;5055943;28;20473;-44
2022/04/27 15:57:27;;;;;;;;;;;;;;;;;;5056176;28;19912;-44
2022/04/27 15:59:52;;;;;;;;;;;;;;;;;;5056222;28;19908;-43
2022/04/27 16:02:17;;;;;;;;;;;;;;;;;;5056167;28;20000;-45
2022/04/27 16:04:43;;;;;;;;;;;;;;;;;;5056151;28;19913;-44
2022/04/27 16:07:08;;;;;;;;;;;;;;;;;;5055908;28;19917;-44
2022/04/27 16:09:34;;;;;;;;;;;;;;;;;;5054624;28;19909;-46
2022/04/27 16:11:59;;;;;;;;;;;;;;;;;;5055985;28;19915;-45
2022/04/27 16:14:26;;;;;;;;;;;;;;;;;;5055743;28;19909;-44
2022/04/27 16:16:51;;;;;;;;;;;;;;;;;;5055836;28;19909;-45
2022/04/27 16:19:17;;;;;;;;;;;;;;;;;;5055889;28;19916;-44
2022/04/27 16:24:26;;;;;;;;;;;;;;;;;;5055043;28;19916;-44
2022/04/27 16:26:51;;;;;;;;;;;;;;;;;;5054903;28;19921;-44
2022/04/27 16:29:17;;;;;;;;;;;;;;;;;;5055533;28;19931;-44
2022/04/27 16:31:42;;;;;;;;;;;;;;;;;;5055544;28;20351;-44
2022/04/27 16:34:07;;;;;;;;;;;;;;;;;;5055540;28;19966;-44
2022/04/27 16:36:32;;;;;;;;;;;;;;;;;;5055480;28;19916;-44
2022/04/27 16:38:57;;;;;;;;;;;;;;;;;;5055508;28;19944;-43
2022/04/27 16:41:23;;;;;;;;;;;;;;;;;;5055267;28;19916;-44
2022/04/27 16:43:48;;;;;;;;;;;;;;;;;;5054326;28;19948;-44
2022/04/27 16:46:13;;;;;;;;;;;;;;;;;;5055185;28;19913;-45
2022/04/27 16:48:38;;;;;;;;;;;;;;;;;;5053932;28;20272;-46
2022/04/27 16:51:03;;;;;;;;;;;;;;;;;;5053859;28;19999;-43
2022/04/27 16:53:28;;;;;;;;;;;;;;;;;;5055117;28;19932;-46
2022/04/27 16:55:54;;;;;;;;;;;;;;;;;;5054713;28;19920;-44
2022/04/27 16:58:19;;;;;;;;;;;;;;;;;;5055029;28;19973;-45
2022/04/27 17:00:53;;;;;;;;;;;;;;;;;;5054832;28;19923;-44
2022/04/27 17:03:18;;;;;;;;;;;;;;;;;;5055016;28;19909;-44
2022/04/27 17:05:43;;;;;;;;;;;;;;;;;;5054924;28;20049;-45